sensor_id;sensor_type;location;lat;lon;timestamp;P1;durP1;ratioP1;P2;durP2;ratioP2
77099;SDS011;66602;48.922;2.414;2023-07-29T00:01:11;12.10;;;11.20;;
77099;SDS011;66602;48.922;2.414;2023-07-29T00:03:37;13.55;;;12.40;;
77099;SDS011;66602;48.922;2.414;2023-07-29T00:06:02;7.45;;;6.90;;
77099;SDS011;66602;48.922;2.414;2023-07-29T00:08:28;8.43;;;6.40;;
77099;SDS011;66602;48.922;2.414;2023-07-29T00:10:53;5.38;;;5.13;;
77099;SDS011;66602;48.922;2.414;2023-07-29T00:13:19;7.03;;;4.93;;
77099;SDS011;66602;48.922;2.414;2023-07-29T00:15:44;5.00;;;4.70;;
77099;SDS011;66602;48.922;2.414;2023-07-29T00:18:10;4.78;;;4.47;;
77099;SDS011;66602;48.922;2.414;2023-07-29T00:20:35;4.60;;;4.30;;
77099;SDS011;66602;48.922;2.414;2023-07-29T00:23:01;4.47;;;4.07;;
77099;SDS011;66602;48.922;2.414;2023-07-29T00:25:27;4.35;;;4.05;;
77099;SDS011;66602;48.922;2.414;2023-07-29T00:27:55;4.30;;;3.90;;
77099;SDS011;66602;48.922;2.414;2023-07-29T00:30:21;4.38;;;3.97;;
77099;SDS011;66602;48.922;2.414;2023-07-29T00:32:47;4.60;;;4.40;;
77099;SDS011;66602;48.922;2.414;2023-07-29T00:35:12;4.50;;;4.20;;
77099;SDS011;66602;48.922;2.414;2023-07-29T00:37:38;3.80;;;3.60;;
77099;SDS011;66602;48.922;2.414;2023-07-29T00:40:06;4.10;;;3.90;;
77099;SDS011;66602;48.922;2.414;2023-07-29T00:42:38;4.10;;;3.90;;
77099;SDS011;66602;48.922;2.414;2023-07-29T00:45:04;4.20;;;3.92;;
77099;SDS011;66602;48.922;2.414;2023-07-29T00:47:32;4.47;;;4.22;;
77099;SDS011;66602;48.922;2.414;2023-07-29T00:49:58;4.63;;;4.30;;
77099;SDS011;66602;48.922;2.414;2023-07-29T00:52:23;5.78;;;5.47;;
77099;SDS011;66602;48.922;2.414;2023-07-29T00:54:49;12.00;;;11.15;;
77099;SDS011;66602;48.922;2.414;2023-07-29T00:57:14;5.70;;;5.45;;
77099;SDS011;66602;48.922;2.414;2023-07-29T00:59:41;5.18;;;4.97;;
77099;SDS011;66602;48.922;2.414;2023-07-29T01:02:07;6.30;;;4.78;;
77099;SDS011;66602;48.922;2.414;2023-07-29T01:04:33;2.67;;;2.58;;
77099;SDS011;66602;48.922;2.414;2023-07-29T01:07:03;1.60;;;1.60;;
77099;SDS011;66602;48.922;2.414;2023-07-29T01:15:33;2.38;;;1.65;;
77099;SDS011;66602;48.922;2.414;2023-07-29T01:18:26;1.60;;;1.60;;
77099;SDS011;66602;48.922;2.414;2023-07-29T01:20:56;1.13;;;1.13;;
77099;SDS011;66602;48.922;2.414;2023-07-29T01:23:24;1.30;;;1.30;;
77099;SDS011;66602;48.922;2.414;2023-07-29T01:25:51;2.72;;;1.17;;
77099;SDS011;66602;48.922;2.414;2023-07-29T01:28:16;2.40;;;1.33;;
77099;SDS011;66602;48.922;2.414;2023-07-29T01:30:42;1.45;;;1.35;;
77099;SDS011;66602;48.922;2.414;2023-07-29T01:35:50;1.20;;;1.20;;
77099;SDS011;66602;48.922;2.414;2023-07-29T01:38:19;1.48;;;1.40;;
77099;SDS011;66602;48.922;2.414;2023-07-29T01:40:50;1.30;;;1.30;;
77099;SDS011;66602;48.922;2.414;2023-07-29T01:43:17;2.63;;;1.30;;
77099;SDS011;66602;48.922;2.414;2023-07-29T01:45:48;1.13;;;1.13;;
77099;SDS011;66602;48.922;2.414;2023-07-29T01:48:14;3.25;;;1.40;;
77099;SDS011;66602;48.922;2.414;2023-07-29T01:50:39;2.90;;;1.38;;
77099;SDS011;66602;48.922;2.414;2023-07-29T01:53:05;2.30;;;1.40;;
77099;SDS011;66602;48.922;2.414;2023-07-29T01:55:30;1.40;;;1.30;;
77099;SDS011;66602;48.922;2.414;2023-07-29T01:57:56;1.35;;;1.35;;
77099;SDS011;66602;48.922;2.414;2023-07-29T02:00:21;4.00;;;1.30;;
77099;SDS011;66602;48.922;2.414;2023-07-29T02:02:47;3.58;;;1.10;;
77099;SDS011;66602;48.922;2.414;2023-07-29T02:05:12;1.30;;;1.23;;
77099;SDS011;66602;48.922;2.414;2023-07-29T02:07:38;1.48;;;1.35;;
77099;SDS011;66602;48.922;2.414;2023-07-29T02:10:03;1.52;;;1.48;;
77099;SDS011;66602;48.922;2.414;2023-07-29T02:12:29;1.20;;;1.20;;
77099;SDS011;66602;48.922;2.414;2023-07-29T02:14:54;7.28;;;1.50;;
77099;SDS011;66602;48.922;2.414;2023-07-29T02:17:20;6.82;;;1.40;;
77099;SDS011;66602;48.922;2.414;2023-07-29T02:19:46;8.70;;;1.15;;
77099;SDS011;66602;48.922;2.414;2023-07-29T02:22:16;0.95;;;0.95;;
77099;SDS011;66602;48.922;2.414;2023-07-29T02:24:43;1.20;;;1.20;;
77099;SDS011;66602;48.922;2.414;2023-07-29T02:27:09;1.52;;;1.20;;
77099;SDS011;66602;48.922;2.414;2023-07-29T02:29:34;0.93;;;0.93;;
77099;SDS011;66602;48.922;2.414;2023-07-29T02:32:00;1.70;;;1.70;;
77099;SDS011;66602;48.922;2.414;2023-07-29T02:34:25;1.10;;;1.10;;
77099;SDS011;66602;48.922;2.414;2023-07-29T02:36:51;1.30;;;1.20;;
77099;SDS011;66602;48.922;2.414;2023-07-29T02:39:16;1.10;;;1.10;;
77099;SDS011;66602;48.922;2.414;2023-07-29T02:41:42;1.13;;;1.10;;
77099;SDS011;66602;48.922;2.414;2023-07-29T02:44:08;1.20;;;1.20;;
77099;SDS011;66602;48.922;2.414;2023-07-29T02:46:34;3.10;;;1.20;;
77099;SDS011;66602;48.922;2.414;2023-07-29T02:49:01;2.65;;;1.13;;
77099;SDS011;66602;48.922;2.414;2023-07-29T02:51:27;1.15;;;1.15;;
77099;SDS011;66602;48.922;2.414;2023-07-29T02:53:53;1.00;;;1.00;;
77099;SDS011;66602;48.922;2.414;2023-07-29T02:56:18;1.10;;;1.10;;
77099;SDS011;66602;48.922;2.414;2023-07-29T02:58:44;2.55;;;1.17;;
77099;SDS011;66602;48.922;2.414;2023-07-29T03:01:09;1.00;;;1.00;;
77099;SDS011;66602;48.922;2.414;2023-07-29T03:03:36;0.90;;;0.90;;
77099;SDS011;66602;48.922;2.414;2023-07-29T03:06:03;1.25;;;1.20;;
77099;SDS011;66602;48.922;2.414;2023-07-29T03:08:30;1.10;;;1.10;;
77099;SDS011;66602;48.922;2.414;2023-07-29T03:10:56;1.17;;;1.17;;
77099;SDS011;66602;48.922;2.414;2023-07-29T03:13:22;1.08;;;1.08;;
77099;SDS011;66602;48.922;2.414;2023-07-29T03:15:47;1.02;;;0.90;;
77099;SDS011;66602;48.922;2.414;2023-07-29T03:18:13;3.83;;;1.02;;
77099;SDS011;66602;48.922;2.414;2023-07-29T03:20:39;1.20;;;1.20;;
77099;SDS011;66602;48.922;2.414;2023-07-29T03:23:05;3.05;;;1.40;;
77099;SDS011;66602;48.922;2.414;2023-07-29T03:25:30;1.00;;;1.00;;
77099;SDS011;66602;48.922;2.414;2023-07-29T03:27:56;1.15;;;1.10;;
77099;SDS011;66602;48.922;2.414;2023-07-29T03:30:21;0.90;;;0.90;;
77099;SDS011;66602;48.922;2.414;2023-07-29T03:32:47;1.02;;;1.02;;
77099;SDS011;66602;48.922;2.414;2023-07-29T03:35:14;1.50;;;1.20;;
77099;SDS011;66602;48.922;2.414;2023-07-29T03:37:39;1.15;;;1.10;;
77099;SDS011;66602;48.922;2.414;2023-07-29T03:40:06;3.72;;;1.60;;
77099;SDS011;66602;48.922;2.414;2023-07-29T03:42:32;0.95;;;0.95;;
77099;SDS011;66602;48.922;2.414;2023-07-29T03:44:57;1.00;;;1.00;;
77099;SDS011;66602;48.922;2.414;2023-07-29T03:47:23;1.25;;;1.20;;
77099;SDS011;66602;48.922;2.414;2023-07-29T03:49:48;1.13;;;1.13;;
77099;SDS011;66602;48.922;2.414;2023-07-29T03:52:14;1.05;;;1.00;;
77099;SDS011;66602;48.922;2.414;2023-07-29T03:54:40;1.23;;;1.23;;
77099;SDS011;66602;48.922;2.414;2023-07-29T03:57:06;1.50;;;1.40;;
77099;SDS011;66602;48.922;2.414;2023-07-29T03:59:33;2.38;;;1.13;;
77099;SDS011;66602;48.922;2.414;2023-07-29T04:02:00;1.38;;;1.38;;
77099;SDS011;66602;48.922;2.414;2023-07-29T04:04:25;1.50;;;1.50;;
77099;SDS011;66602;48.922;2.414;2023-07-29T04:06:51;1.70;;;1.42;;
77099;SDS011;66602;48.922;2.414;2023-07-29T04:09:16;1.50;;;1.40;;
77099;SDS011;66602;48.922;2.414;2023-07-29T04:11:42;4.40;;;1.27;;
77099;SDS011;66602;48.922;2.414;2023-07-29T04:14:07;1.48;;;1.40;;
77099;SDS011;66602;48.922;2.414;2023-07-29T04:16:33;1.30;;;1.23;;
77099;SDS011;66602;48.922;2.414;2023-07-29T04:18:58;2.22;;;2.13;;
77099;SDS011;66602;48.922;2.414;2023-07-29T04:21:24;1.75;;;1.65;;
77099;SDS011;66602;48.922;2.414;2023-07-29T04:23:50;1.73;;;1.60;;
77099;SDS011;66602;48.922;2.414;2023-07-29T04:26:16;2.15;;;1.85;;
77099;SDS011;66602;48.922;2.414;2023-07-29T04:28:42;1.50;;;1.50;;
77099;SDS011;66602;48.922;2.414;2023-07-29T04:31:08;1.48;;;1.48;;
77099;SDS011;66602;48.922;2.414;2023-07-29T04:33:33;3.00;;;2.00;;
77099;SDS011;66602;48.922;2.414;2023-07-29T04:35:59;1.95;;;1.83;;
77099;SDS011;66602;48.922;2.414;2023-07-29T04:38:27;1.83;;;1.75;;
77099;SDS011;66602;48.922;2.414;2023-07-29T04:40:55;1.67;;;1.67;;
77099;SDS011;66602;48.922;2.414;2023-07-29T04:43:21;1.50;;;1.50;;
77099;SDS011;66602;48.922;2.414;2023-07-29T04:45:46;1.40;;;1.40;;
77099;SDS011;66602;48.922;2.414;2023-07-29T04:48:12;1.55;;;1.50;;
77099;SDS011;66602;48.922;2.414;2023-07-29T04:50:37;1.88;;;1.77;;
77099;SDS011;66602;48.922;2.414;2023-07-29T04:53:03;2.70;;;2.05;;
77099;SDS011;66602;48.922;2.414;2023-07-29T04:55:28;2.60;;;2.50;;
77099;SDS011;66602;48.922;2.414;2023-07-29T04:57:54;2.22;;;2.13;;
77099;SDS011;66602;48.922;2.414;2023-07-29T05:00:19;1.83;;;1.73;;
77099;SDS011;66602;48.922;2.414;2023-07-29T05:02:45;1.40;;;1.40;;
77099;SDS011;66602;48.922;2.414;2023-07-29T05:05:11;4.47;;;2.33;;
77099;SDS011;66602;48.922;2.414;2023-07-29T05:07:38;2.17;;;1.45;;
77099;SDS011;66602;48.922;2.414;2023-07-29T05:10:04;2.05;;;1.83;;
77099;SDS011;66602;48.922;2.414;2023-07-29T05:12:30;1.60;;;1.60;;
77099;SDS011;66602;48.922;2.414;2023-07-29T05:14:57;1.42;;;1.42;;
77099;SDS011;66602;48.922;2.414;2023-07-29T05:17:23;2.17;;;1.77;;
77099;SDS011;66602;48.922;2.414;2023-07-29T05:19:49;1.70;;;1.60;;
77099;SDS011;66602;48.922;2.414;2023-07-29T05:22:14;5.07;;;1.63;;
77099;SDS011;66602;48.922;2.414;2023-07-29T05:24:40;1.60;;;1.50;;
77099;SDS011;66602;48.922;2.414;2023-07-29T05:27:05;1.52;;;1.42;;
77099;SDS011;66602;48.922;2.414;2023-07-29T05:29:30;2.55;;;1.70;;
77099;SDS011;66602;48.922;2.414;2023-07-29T05:31:56;1.33;;;1.33;;
77099;SDS011;66602;48.922;2.414;2023-07-29T05:34:22;1.40;;;1.40;;
77099;SDS011;66602;48.922;2.414;2023-07-29T05:36:47;3.20;;;1.50;;
77099;SDS011;66602;48.922;2.414;2023-07-29T05:39:13;1.73;;;1.63;;
77099;SDS011;66602;48.922;2.414;2023-07-29T05:41:38;1.42;;;1.42;;
77099;SDS011;66602;48.922;2.414;2023-07-29T05:44:04;1.60;;;1.60;;
77099;SDS011;66602;48.922;2.414;2023-07-29T05:46:30;4.43;;;1.55;;
77099;SDS011;66602;48.922;2.414;2023-07-29T05:48:55;2.53;;;1.50;;
77099;SDS011;66602;48.922;2.414;2023-07-29T05:51:21;5.00;;;4.07;;
77099;SDS011;66602;48.922;2.414;2023-07-29T05:53:46;1.45;;;1.40;;
77099;SDS011;66602;48.922;2.414;2023-07-29T05:56:12;1.20;;;1.20;;
77099;SDS011;66602;48.922;2.414;2023-07-29T05:58:37;1.85;;;1.15;;
77099;SDS011;66602;48.922;2.414;2023-07-29T06:01:03;1.27;;;1.27;;
77099;SDS011;66602;48.922;2.414;2023-07-29T06:03:28;1.30;;;1.30;;
77099;SDS011;66602;48.922;2.414;2023-07-29T06:05:54;1.40;;;1.10;;
77099;SDS011;66602;48.922;2.414;2023-07-29T06:08:19;1.75;;;1.42;;
77099;SDS011;66602;48.922;2.414;2023-07-29T06:10:45;1.30;;;1.30;;
77099;SDS011;66602;48.922;2.414;2023-07-29T06:13:10;1.27;;;1.17;;
77099;SDS011;66602;48.922;2.414;2023-07-29T06:15:36;1.20;;;1.20;;
77099;SDS011;66602;48.922;2.414;2023-07-29T06:18:01;1.70;;;1.23;;
77099;SDS011;66602;48.922;2.414;2023-07-29T06:20:27;1.33;;;1.25;;
77099;SDS011;66602;48.922;2.414;2023-07-29T06:22:53;1.30;;;1.20;;
77099;SDS011;66602;48.922;2.414;2023-07-29T06:25:19;1.50;;;1.40;;
77099;SDS011;66602;48.922;2.414;2023-07-29T06:27:44;1.13;;;1.05;;
77099;SDS011;66602;48.922;2.414;2023-07-29T06:30:11;1.00;;;1.00;;
77099;SDS011;66602;48.922;2.414;2023-07-29T06:32:36;1.10;;;1.10;;
77099;SDS011;66602;48.922;2.414;2023-07-29T06:35:02;3.45;;;1.33;;
77099;SDS011;66602;48.922;2.414;2023-07-29T06:37:27;1.40;;;1.30;;
77099;SDS011;66602;48.922;2.414;2023-07-29T06:39:53;1.45;;;1.27;;
77099;SDS011;66602;48.922;2.414;2023-07-29T06:42:18;1.10;;;1.10;;
77099;SDS011;66602;48.922;2.414;2023-07-29T06:44:44;0.95;;;0.95;;
77099;SDS011;66602;48.922;2.414;2023-07-29T06:47:11;1.10;;;1.10;;
77099;SDS011;66602;48.922;2.414;2023-07-29T06:49:36;1.00;;;1.00;;
77099;SDS011;66602;48.922;2.414;2023-07-29T06:52:02;1.13;;;1.13;;
77099;SDS011;66602;48.922;2.414;2023-07-29T06:54:28;2.80;;;1.10;;
77099;SDS011;66602;48.922;2.414;2023-07-29T06:56:53;1.15;;;0.80;;
77099;SDS011;66602;48.922;2.414;2023-07-29T06:59:19;0.70;;;0.70;;
77099;SDS011;66602;48.922;2.414;2023-07-29T07:01:44;1.23;;;1.23;;
77099;SDS011;66602;48.922;2.414;2023-07-29T07:04:10;0.98;;;0.98;;
77099;SDS011;66602;48.922;2.414;2023-07-29T07:06:35;3.03;;;0.85;;
77099;SDS011;66602;48.922;2.414;2023-07-29T07:09:01;0.90;;;0.90;;
77099;SDS011;66602;48.922;2.414;2023-07-29T07:11:26;1.00;;;1.00;;
77099;SDS011;66602;48.922;2.414;2023-07-29T07:13:51;0.70;;;0.70;;
77099;SDS011;66602;48.922;2.414;2023-07-29T07:16:17;0.70;;;0.70;;
77099;SDS011;66602;48.922;2.414;2023-07-29T07:18:43;0.60;;;0.60;;
77099;SDS011;66602;48.922;2.414;2023-07-29T07:21:08;10.82;;;1.77;;
77099;SDS011;66602;48.922;2.414;2023-07-29T07:23:34;0.77;;;0.73;;
77099;SDS011;66602;48.922;2.414;2023-07-29T07:25:59;0.73;;;0.73;;
77099;SDS011;66602;48.922;2.414;2023-07-29T07:28:25;1.00;;;1.00;;
77099;SDS011;66602;48.922;2.414;2023-07-29T07:30:51;0.90;;;0.90;;
77099;SDS011;66602;48.922;2.414;2023-07-29T07:33:16;3.20;;;0.45;;
77099;SDS011;66602;48.922;2.414;2023-07-29T07:35:42;1.38;;;0.82;;
77099;SDS011;66602;48.922;2.414;2023-07-29T07:38:07;1.00;;;1.00;;
77099;SDS011;66602;48.922;2.414;2023-07-29T07:40:34;0.80;;;0.80;;
77099;SDS011;66602;48.922;2.414;2023-07-29T07:43:01;0.70;;;0.70;;
77099;SDS011;66602;48.922;2.414;2023-07-29T07:45:27;0.98;;;0.98;;
77099;SDS011;66602;48.922;2.414;2023-07-29T07:47:52;0.80;;;0.80;;
77099;SDS011;66602;48.922;2.414;2023-07-29T07:50:21;0.75;;;0.75;;
77099;SDS011;66602;48.922;2.414;2023-07-29T07:52:47;0.95;;;0.93;;
77099;SDS011;66602;48.922;2.414;2023-07-29T07:55:13;0.80;;;0.80;;
77099;SDS011;66602;48.922;2.414;2023-07-29T07:57:38;0.88;;;0.88;;
77099;SDS011;66602;48.922;2.414;2023-07-29T08:00:04;1.27;;;0.77;;
77099;SDS011;66602;48.922;2.414;2023-07-29T08:02:31;0.80;;;0.80;;
77099;SDS011;66602;48.922;2.414;2023-07-29T08:04:56;1.00;;;1.00;;
77099;SDS011;66602;48.922;2.414;2023-07-29T08:07:21;0.90;;;0.90;;
77099;SDS011;66602;48.922;2.414;2023-07-29T08:09:47;0.80;;;0.80;;
77099;SDS011;66602;48.922;2.414;2023-07-29T08:12:12;0.88;;;0.88;;
77099;SDS011;66602;48.922;2.414;2023-07-29T08:14:38;1.17;;;1.13;;
77099;SDS011;66602;48.922;2.414;2023-07-29T08:17:03;1.65;;;1.65;;
77099;SDS011;66602;48.922;2.414;2023-07-29T08:19:29;1.83;;;1.15;;
77099;SDS011;66602;48.922;2.414;2023-07-29T08:21:55;6.65;;;2.10;;
77099;SDS011;66602;48.922;2.414;2023-07-29T08:24:20;0.98;;;0.98;;
77099;SDS011;66602;48.922;2.414;2023-07-29T08:26:46;1.17;;;1.08;;
77099;SDS011;66602;48.922;2.414;2023-07-29T08:29:11;2.20;;;1.63;;
77099;SDS011;66602;48.922;2.414;2023-07-29T08:31:37;1.30;;;1.30;;
77099;SDS011;66602;48.922;2.414;2023-07-29T08:34:04;1.85;;;1.10;;
77099;SDS011;66602;48.922;2.414;2023-07-29T08:36:29;0.90;;;0.80;;
77099;SDS011;66602;48.922;2.414;2023-07-29T08:38:55;1.00;;;1.00;;
77099;SDS011;66602;48.922;2.414;2023-07-29T08:44:26;1.25;;;0.80;;
77099;SDS011;66602;48.922;2.414;2023-07-29T08:46:56;0.70;;;0.70;;
77099;SDS011;66602;48.922;2.414;2023-07-29T08:49:22;1.38;;;1.02;;
77099;SDS011;66602;48.922;2.414;2023-07-29T08:51:49;1.20;;;0.80;;
77099;SDS011;66602;48.922;2.414;2023-07-29T08:54:16;1.02;;;1.02;;
77099;SDS011;66602;48.922;2.414;2023-07-29T08:56:42;1.00;;;1.00;;
77099;SDS011;66602;48.922;2.414;2023-07-29T08:59:08;1.38;;;1.30;;
77099;SDS011;66602;48.922;2.414;2023-07-29T09:01:34;1.35;;;1.35;;
77099;SDS011;66602;48.922;2.414;2023-07-29T09:04:01;1.00;;;1.00;;
77099;SDS011;66602;48.922;2.414;2023-07-29T09:06:26;1.55;;;1.45;;
77099;SDS011;66602;48.922;2.414;2023-07-29T09:08:55;2.97;;;1.10;;
77099;SDS011;66602;48.922;2.414;2023-07-29T09:11:23;1.55;;;1.50;;
77099;SDS011;66602;48.922;2.414;2023-07-29T09:13:50;1.48;;;1.40;;
77099;SDS011;66602;48.922;2.414;2023-07-29T09:16:16;3.60;;;1.30;;
77099;SDS011;66602;48.922;2.414;2023-07-29T09:18:41;0.90;;;0.80;;
77099;SDS011;66602;48.922;2.414;2023-07-29T09:21:07;0.80;;;0.80;;
77099;SDS011;66602;48.922;2.414;2023-07-29T09:23:40;0.90;;;0.90;;
77099;SDS011;66602;48.922;2.414;2023-07-29T09:26:07;0.70;;;0.70;;
77099;SDS011;66602;48.922;2.414;2023-07-29T09:28:33;0.60;;;0.60;;
77099;SDS011;66602;48.922;2.414;2023-07-29T09:31:00;1.00;;;1.00;;
77099;SDS011;66602;48.922;2.414;2023-07-29T09:33:25;0.73;;;0.73;;
77099;SDS011;66602;48.922;2.414;2023-07-29T09:35:51;0.82;;;0.70;;
77099;SDS011;66602;48.922;2.414;2023-07-29T09:38:17;0.93;;;0.93;;
77099;SDS011;66602;48.922;2.414;2023-07-29T09:40:43;1.00;;;1.00;;
77099;SDS011;66602;48.922;2.414;2023-07-29T09:43:10;1.00;;;0.77;;
77099;SDS011;66602;48.922;2.414;2023-07-29T09:45:36;1.33;;;1.23;;
77099;SDS011;66602;48.922;2.414;2023-07-29T09:48:03;1.00;;;1.00;;
77099;SDS011;66602;48.922;2.414;2023-07-29T09:50:30;1.25;;;1.25;;
77099;SDS011;66602;48.922;2.414;2023-07-29T09:52:56;1.90;;;1.13;;
77099;SDS011;66602;48.922;2.414;2023-07-29T09:55:25;12.25;;;10.15;;
77099;SDS011;66602;48.922;2.414;2023-07-29T09:57:57;1.90;;;1.80;;
77099;SDS011;66602;48.922;2.414;2023-07-29T10:00:29;4.10;;;1.30;;
77099;SDS011;66602;48.922;2.414;2023-07-29T10:05:28;1.20;;;1.20;;
77099;SDS011;66602;48.922;2.414;2023-07-29T10:07:54;1.13;;;1.13;;
77099;SDS011;66602;48.922;2.414;2023-07-29T10:10:21;1.10;;;1.10;;
77099;SDS011;66602;48.922;2.414;2023-07-29T10:12:47;1.60;;;1.50;;
77099;SDS011;66602;48.922;2.414;2023-07-29T10:15:14;2.55;;;1.90;;
77099;SDS011;66602;48.922;2.414;2023-07-29T10:17:39;1.77;;;1.67;;
77099;SDS011;66602;48.922;2.414;2023-07-29T10:20:06;2.47;;;1.63;;
77099;SDS011;66602;48.922;2.414;2023-07-29T10:22:40;1.45;;;1.45;;
77099;SDS011;66602;48.922;2.414;2023-07-29T10:25:18;1.10;;;1.10;;
77099;SDS011;66602;48.922;2.414;2023-07-29T10:30:23;5.45;;;4.47;;
77099;SDS011;66602;48.922;2.414;2023-07-29T10:32:49;1.50;;;1.50;;
77099;SDS011;66602;48.922;2.414;2023-07-29T10:35:18;1.30;;;1.30;;
77099;SDS011;66602;48.922;2.414;2023-07-29T10:37:43;1.38;;;1.38;;
77099;SDS011;66602;48.922;2.414;2023-07-29T10:40:10;1.80;;;1.73;;
77099;SDS011;66602;48.922;2.414;2023-07-29T10:42:37;1.20;;;1.20;;
77099;SDS011;66602;48.922;2.414;2023-07-29T10:45:17;1.60;;;1.50;;
77099;SDS011;66602;48.922;2.414;2023-07-29T10:47:45;1.60;;;1.60;;
77099;SDS011;66602;48.922;2.414;2023-07-29T10:50:19;2.38;;;2.22;;
77099;SDS011;66602;48.922;2.414;2023-07-29T10:52:50;1.10;;;1.10;;
77099;SDS011;66602;48.922;2.414;2023-07-29T10:57:49;1.63;;;1.52;;
77099;SDS011;66602;48.922;2.414;2023-07-29T11:00:15;2.00;;;1.23;;
77099;SDS011;66602;48.922;2.414;2023-07-29T11:02:41;2.00;;;1.90;;
77099;SDS011;66602;48.922;2.414;2023-07-29T11:05:07;2.40;;;2.30;;
77099;SDS011;66602;48.922;2.414;2023-07-29T11:07:44;2.08;;;1.98;;
77099;SDS011;66602;48.922;2.414;2023-07-29T11:10:12;1.30;;;1.30;;
77099;SDS011;66602;48.922;2.414;2023-07-29T11:12:42;1.55;;;1.45;;
77099;SDS011;66602;48.922;2.414;2023-07-29T11:20:27;4.03;;;1.35;;
77099;SDS011;66602;48.922;2.414;2023-07-29T11:22:54;1.13;;;1.13;;
77099;SDS011;66602;48.922;2.414;2023-07-29T11:25:22;2.47;;;1.10;;
77099;SDS011;66602;48.922;2.414;2023-07-29T11:27:54;1.83;;;1.40;;
77099;SDS011;66602;48.922;2.414;2023-07-29T11:30:21;1.40;;;1.30;;
77099;SDS011;66602;48.922;2.414;2023-07-29T11:32:48;1.70;;;1.60;;
77099;SDS011;66602;48.922;2.414;2023-07-29T11:35:17;4.85;;;1.25;;
77099;SDS011;66602;48.922;2.414;2023-07-29T11:37:44;0.93;;;0.93;;
77099;SDS011;66602;48.922;2.414;2023-07-29T11:40:15;1.10;;;1.10;;
77099;SDS011;66602;48.922;2.414;2023-07-29T11:42:42;1.20;;;1.20;;
77099;SDS011;66602;48.922;2.414;2023-07-29T11:45:08;1.02;;;1.02;;
77099;SDS011;66602;48.922;2.414;2023-07-29T11:47:34;1.75;;;1.13;;
77099;SDS011;66602;48.922;2.414;2023-07-29T11:50:02;1.52;;;1.50;;
77099;SDS011;66602;48.922;2.414;2023-07-29T11:52:35;1.73;;;1.55;;
77099;SDS011;66602;48.922;2.414;2023-07-29T11:55:02;1.27;;;1.27;;
77099;SDS011;66602;48.922;2.414;2023-07-29T11:57:36;1.40;;;1.30;;
77099;SDS011;66602;48.922;2.414;2023-07-29T12:00:03;1.00;;;1.00;;
77099;SDS011;66602;48.922;2.414;2023-07-29T12:02:31;1.45;;;1.35;;
77099;SDS011;66602;48.922;2.414;2023-07-29T12:04:57;1.00;;;1.00;;
77099;SDS011;66602;48.922;2.414;2023-07-29T12:07:23;3.25;;;1.40;;
77099;SDS011;66602;48.922;2.414;2023-07-29T12:09:49;1.02;;;1.02;;
77099;SDS011;66602;48.922;2.414;2023-07-29T12:12:15;0.90;;;0.90;;
77099;SDS011;66602;48.922;2.414;2023-07-29T12:14:47;1.33;;;1.30;;
77099;SDS011;66602;48.922;2.414;2023-07-29T12:17:13;1.75;;;1.65;;
77099;SDS011;66602;48.922;2.414;2023-07-29T12:19:39;1.80;;;1.70;;
77099;SDS011;66602;48.922;2.414;2023-07-29T12:22:06;2.30;;;2.10;;
77099;SDS011;66602;48.922;2.414;2023-07-29T12:24:34;1.38;;;1.38;;
77099;SDS011;66602;48.922;2.414;2023-07-29T12:27:01;4.65;;;1.83;;
77099;SDS011;66602;48.922;2.414;2023-07-29T12:29:27;1.40;;;1.40;;
77099;SDS011;66602;48.922;2.414;2023-07-29T12:31:57;1.15;;;1.10;;
77099;SDS011;66602;48.922;2.414;2023-07-29T12:34:31;1.15;;;1.15;;
77099;SDS011;66602;48.922;2.414;2023-07-29T12:36:57;2.33;;;1.00;;
77099;SDS011;66602;48.922;2.414;2023-07-29T12:39:26;1.20;;;1.17;;
77099;SDS011;66602;48.922;2.414;2023-07-29T12:41:54;1.85;;;1.00;;
77099;SDS011;66602;48.922;2.414;2023-07-29T12:44:22;1.15;;;1.08;;
77099;SDS011;66602;48.922;2.414;2023-07-29T12:46:48;1.27;;;1.27;;
77099;SDS011;66602;48.922;2.414;2023-07-29T12:49:14;1.20;;;1.20;;
77099;SDS011;66602;48.922;2.414;2023-07-29T12:51:40;1.20;;;1.20;;
77099;SDS011;66602;48.922;2.414;2023-07-29T12:54:05;2.20;;;1.20;;
77099;SDS011;66602;48.922;2.414;2023-07-29T12:56:31;1.08;;;1.08;;
77099;SDS011;66602;48.922;2.414;2023-07-29T12:58:57;1.13;;;1.13;;
77099;SDS011;66602;48.922;2.414;2023-07-29T13:01:26;11.80;;;1.70;;
77099;SDS011;66602;48.922;2.414;2023-07-29T13:03:52;1.60;;;1.50;;
77099;SDS011;66602;48.922;2.414;2023-07-29T13:06:18;1.60;;;1.50;;
77099;SDS011;66602;48.922;2.414;2023-07-29T13:08:44;1.00;;;1.00;;
77099;SDS011;66602;48.922;2.414;2023-07-29T13:11:11;1.08;;;1.08;;
77099;SDS011;66602;48.922;2.414;2023-07-29T13:13:37;1.42;;;1.33;;
77099;SDS011;66602;48.922;2.414;2023-07-29T13:16:02;1.00;;;1.00;;
77099;SDS011;66602;48.922;2.414;2023-07-29T13:18:28;2.75;;;2.33;;
77099;SDS011;66602;48.922;2.414;2023-07-29T13:20:54;5.40;;;5.05;;
77099;SDS011;66602;48.922;2.414;2023-07-29T13:23:20;1.50;;;1.45;;
77099;SDS011;66602;48.922;2.414;2023-07-29T13:25:46;1.80;;;1.70;;
77099;SDS011;66602;48.922;2.414;2023-07-29T13:28:12;2.45;;;2.35;;
77099;SDS011;66602;48.922;2.414;2023-07-29T13:30:38;2.88;;;1.65;;
77099;SDS011;66602;48.922;2.414;2023-07-29T13:33:06;1.45;;;1.35;;
77099;SDS011;66602;48.922;2.414;2023-07-29T13:35:32;1.20;;;1.20;;
77099;SDS011;66602;48.922;2.414;2023-07-29T13:37:58;1.80;;;0.93;;
77099;SDS011;66602;48.922;2.414;2023-07-29T13:40:24;2.15;;;1.02;;
77099;SDS011;66602;48.922;2.414;2023-07-29T13:42:49;1.38;;;1.30;;
77099;SDS011;66602;48.922;2.414;2023-07-29T13:45:15;1.25;;;1.25;;
77099;SDS011;66602;48.922;2.414;2023-07-29T13:47:40;1.20;;;1.20;;
77099;SDS011;66602;48.922;2.414;2023-07-29T13:50:06;3.08;;;1.40;;
77099;SDS011;66602;48.922;2.414;2023-07-29T13:52:35;1.10;;;1.10;;
77099;SDS011;66602;48.922;2.414;2023-07-29T13:55:03;1.60;;;1.50;;
77099;SDS011;66602;48.922;2.414;2023-07-29T13:57:29;1.40;;;1.40;;
77099;SDS011;66602;48.922;2.414;2023-07-29T13:59:54;1.17;;;1.17;;
77099;SDS011;66602;48.922;2.414;2023-07-29T14:02:20;0.93;;;0.93;;
77099;SDS011;66602;48.922;2.414;2023-07-29T14:04:45;4.80;;;1.70;;
77099;SDS011;66602;48.922;2.414;2023-07-29T14:07:11;1.48;;;1.38;;
77099;SDS011;66602;48.922;2.414;2023-07-29T14:09:36;1.38;;;1.30;;
77099;SDS011;66602;48.922;2.414;2023-07-29T14:12:03;1.50;;;1.48;;
77099;SDS011;66602;48.922;2.414;2023-07-29T14:14:29;1.92;;;1.83;;
77099;SDS011;66602;48.922;2.414;2023-07-29T14:16:55;1.83;;;1.73;;
77099;SDS011;66602;48.922;2.414;2023-07-29T14:19:20;2.70;;;2.47;;
77099;SDS011;66602;48.922;2.414;2023-07-29T14:21:45;1.90;;;1.80;;
77099;SDS011;66602;48.922;2.414;2023-07-29T14:24:11;1.85;;;1.75;;
77099;SDS011;66602;48.922;2.414;2023-07-29T14:26:36;1.38;;;1.38;;
77099;SDS011;66602;48.922;2.414;2023-07-29T14:29:02;1.40;;;1.30;;
77099;SDS011;66602;48.922;2.414;2023-07-29T14:31:27;1.20;;;1.15;;
77099;SDS011;66602;48.922;2.414;2023-07-29T14:33:53;1.23;;;1.23;;
77099;SDS011;66602;48.922;2.414;2023-07-29T14:36:18;1.33;;;1.23;;
77099;SDS011;66602;48.922;2.414;2023-07-29T14:38:44;1.08;;;1.08;;
77099;SDS011;66602;48.922;2.414;2023-07-29T14:41:09;0.80;;;0.80;;
77099;SDS011;66602;48.922;2.414;2023-07-29T14:43:35;1.85;;;1.40;;
77099;SDS011;66602;48.922;2.414;2023-07-29T14:46:01;1.48;;;1.48;;
77099;SDS011;66602;48.922;2.414;2023-07-29T14:48:27;1.50;;;1.40;;
77099;SDS011;66602;48.922;2.414;2023-07-29T14:50:53;4.43;;;4.07;;
77099;SDS011;66602;48.922;2.414;2023-07-29T14:53:18;1.70;;;1.60;;
77099;SDS011;66602;48.922;2.414;2023-07-29T14:55:45;2.80;;;1.95;;
77099;SDS011;66602;48.922;2.414;2023-07-29T14:58:10;1.35;;;1.35;;
77099;SDS011;66602;48.922;2.414;2023-07-29T15:00:36;7.38;;;6.88;;
77099;SDS011;66602;48.922;2.414;2023-07-29T15:03:02;1.38;;;1.38;;
77099;SDS011;66602;48.922;2.414;2023-07-29T15:05:28;1.27;;;1.27;;
77099;SDS011;66602;48.922;2.414;2023-07-29T15:07:53;1.58;;;1.52;;